Time;durP1;ratioP1;P1;durP2;ratioP2;P2;SDS_P1;SDS_P2;PMS_P1;PMS_P2;Temp;Humidity;BMP_temperature;BMP_pressure;BME280_temperature;BME280_humidity;BME280_pressure;Samples;Min_cycle;Max_cycle;Signal;HPM_P1;HPM_P2
2022/01/08 00:00:12;;;;;;;32.60;15.07;;;1.50;99.90;;;;;;5032113;28;20489;-84
2022/01/08 00:02:38;;;;;;;30.38;14.00;;;1.40;99.90;;;;;;5032587;28;20049;-83
2022/01/08 00:05:04;;;;;;;29.45;13.27;;;1.40;99.90;;;;;;4998228;28;20406;-83
2022/01/08 00:07:30;;;;;;;23.92;11.88;;;1.40;99.90;;;;;;5032232;28;20053;-83
2022/01/08 00:09:55;;;;;;;22.45;11.13;;;1.50;99.90;;;;;;5031292;28;20049;-84
2022/01/08 00:12:21;;;;;;;22.88;10.07;;;1.60;99.90;;;;;;5030899;28;20060;-83
2022/01/08 00:14:47;;;;;;;22.88;10.95;;;1.70;99.90;;;;;;5032409;28;20131;-83
2022/01/08 00:17:13;;;;;;;22.73;9.35;;;2.10;99.90;;;;;;5030951;28;20084;-84
2022/01/08 00:19:38;;;;;;;21.08;9.90;;;1.60;99.90;;;;;;5030656;28;20054;-84
2022/01/08 00:22:04;;;;;;;17.55;9.40;;;2.70;99.90;;;;;;5030658;28;20061;-84
2022/01/08 00:24:30;;;;;;;19.65;9.00;;;3.00;99.90;;;;;;5014634;28;20132;-84
2022/01/08 00:26:55;;;;;;;19.23;9.10;;;1.40;99.90;;;;;;5031048;28;20061;-85
2022/01/08 00:29:21;;;;;;;16.85;9.13;;;1.50;99.90;;;;;;5031836;28;20075;-84
2022/01/08 00:31:47;;;;;;;16.90;8.98;;;1.50;99.90;;;;;;5030577;28;20046;-84
2022/01/08 00:34:12;;;;;;;18.15;10.25;;;1.50;99.90;;;;;;5030501;28;20117;-84
2022/01/08 00:36:38;;;;;;;27.13;11.77;;;1.40;99.90;;;;;;5032465;28;20055;-84
2022/01/08 00:39:04;;;;;;;22.60;11.38;;;1.40;99.90;;;;;;5031206;28;20151;-83
2022/01/08 00:41:30;;;;;;;18.48;10.60;;;1.40;99.90;;;;;;5030761;28;20083;-84
2022/01/08 00:43:56;;;;;;;20.88;11.30;;;1.40;99.90;;;;;;5030412;28;20045;-83
2022/01/08 00:46:21;;;;;;;20.75;11.77;;;1.70;99.90;;;;;;5013757;28;20045;-83
2022/01/08 00:48:47;;;;;;;25.25;12.30;;;1.80;99.90;;;;;;5031532;28;20057;-85
2022/01/08 00:51:13;;;;;;;22.88;12.27;;;1.40;99.90;;;;;;5031826;28;20132;-85
2022/01/08 00:53:38;;;;;;;26.02;12.80;;;2.90;99.90;;;;;;5014535;28;20068;-85
2022/01/08 00:56:04;;;;;;;27.50;12.32;;;1.90;99.90;;;;;;5030472;28;20470;-83
2022/01/08 00:58:30;;;;;;;26.88;11.68;;;1.50;99.90;;;;;;5029424;28;20413;-82
2022/01/08 01:00:56;;;;;;;24.15;12.38;;;1.60;99.90;;;;;;5031711;28;20056;-82
2022/01/08 01:03:21;;;;;;;26.17;11.50;;;1.50;99.90;;;;;;5013269;28;20067;-83
2022/01/08 01:05:47;;;;;;;28.42;13.27;;;1.40;99.90;;;;;;5031426;28;20140;-83
2022/01/08 01:08:13;;;;;;;25.75;11.48;;;2.00;99.90;;;;;;5031115;28;20100;-85
2022/01/08 01:10:39;;;;;;;19.35;11.45;;;1.30;99.90;;;;;;5031405;28;20201;-84
2022/01/08 01:13:04;;;;;;;27.75;11.55;;;1.30;99.90;;;;;;4997535;28;20292;-85
2022/01/08 01:15:30;;;;;;;25.10;10.02;;;1.30;99.90;;;;;;5013620;28;20052;-85
2022/01/08 01:17:56;;;;;;;20.35;10.25;;;1.30;99.90;;;;;;5031170;28;20076;-85
2022/01/08 01:20:22;;;;;;;19.63;10.05;;;2.40;99.90;;;;;;5030744;28;20053;-84
2022/01/08 01:23:00;;;;;;;22.55;9.43;;;1.40;99.90;;;;;;5031367;28;20481;-84
2022/01/08 01:25:35;;;;;;;22.08;9.95;;;1.40;99.90;;;;;;5029364;28;20362;-83
2022/01/08 01:47:03;;;;;;;31.00;11.25;;;1.60;99.90;;;;;;5015419;28;20135;-85
2022/01/08 01:49:33;;;;;;;20.15;11.52;;;1.60;99.90;;;;;;5030913;28;20088;-85
2022/01/08 01:51:59;;;;;;;24.45;12.07;;;1.50;99.90;;;;;;5031546;28;20390;-85
2022/01/08 01:54:28;;;;;;;20.73;10.73;;;2.60;99.90;;;;;;5014666;28;20058;-84
2022/01/08 01:56:55;;;;;;;27.13;13.07;;;1.70;99.90;;;;;;5030856;28;20518;-84
2022/01/08 01:59:21;;;;;;;27.98;13.13;;;1.70;99.90;;;;;;5030773;28;20527;-85
2022/01/08 02:01:46;;;;;;;30.60;13.23;;;2.30;99.90;;;;;;5030103;28;20077;-85
2022/01/08 02:04:12;;;;;;;27.38;14.23;;;1.90;99.90;;;;;;5032548;28;20127;-85
2022/01/08 02:06:38;;;;;;;32.20;16.10;;;2.20;99.90;;;;;;5031872;28;20465;-85
2022/01/08 02:09:03;;;;;;;30.08;12.65;;;1.70;99.90;;;;;;5014816;28;20110;-85
2022/01/08 02:11:29;;;;;;;29.42;16.73;;;1.80;99.90;;;;;;5014311;28;20559;-85
2022/01/08 02:14:05;;;;;;;35.22;17.27;;;2.80;99.90;;;;;;5031088;28;20052;-85
2022/01/08 02:16:31;;;;;;;31.88;15.68;;;1.80;99.90;;;;;;4997933;28;20046;-85
2022/01/08 02:18:56;;;;;;;29.45;16.35;;;1.90;99.90;;;;;;5013878;28;20072;-85
2022/01/08 02:21:22;;;;;;;40.08;17.80;;;3.30;99.90;;;;;;5030146;28;20072;-85
2022/01/08 02:23:48;;;;;;;34.28;17.55;;;1.90;99.90;;;;;;5043858;28;20040;-84
2022/01/08 02:26:14;;;;;;;31.42;15.48;;;3.00;99.90;;;;;;5015186;28;20115;-85
2022/01/08 02:28:40;;;;;;;31.70;16.77;;;2.20;99.90;;;;;;5029400;28;20054;-85
2022/01/08 02:31:06;;;;;;;32.83;16.20;;;1.80;99.90;;;;;;5030226;28;20060;-85
2022/01/08 02:33:32;;;;;;;32.58;16.52;;;1.60;99.90;;;;;;5013240;28;20053;-85
2022/01/08 02:35:58;;;;;;;34.85;17.10;;;3.00;99.90;;;;;;5013685;28;20347;-85
2022/01/08 02:38:24;;;;;;;33.50;16.65;;;1.60;99.90;;;;;;5031107;28;20084;-85
2022/01/08 02:40:55;;;;;;;46.42;19.63;;;1.50;99.90;;;;;;4997405;28;20055;-84
2022/01/08 02:43:21;;;;;;;41.75;18.70;;;2.70;99.90;;;;;;5029591;28;20056;-85
2022/01/08 02:45:47;;;;;;;41.92;19.42;;;1.80;99.90;;;;;;5030398;28;20038;-85
2022/01/08 02:48:12;;;;;;;32.72;18.05;;;1.40;99.90;;;;;;5013453;28;20132;-85
2022/01/08 02:50:38;;;;;;;37.72;18.17;;;1.30;99.90;;;;;;5029266;28;20060;-85
2022/01/08 02:53:04;;;;;;;35.58;19.25;;;1.80;99.90;;;;;;5013456;28;20061;-85
2022/01/08 02:55:29;;;;;;;36.58;18.92;;;1.30;99.90;;;;;;5029120;28;20049;-85
2022/01/08 02:57:55;;;;;;;37.85;19.10;;;1.60;99.90;;;;;;5029564;28;20056;-85
2022/01/08 03:00:20;;;;;;;41.33;20.50;;;1.40;99.90;;;;;;5029286;28;20045;-85
2022/01/08 03:02:48;;;;;;;44.35;19.45;;;1.30;99.90;;;;;;5028971;28;20143;-85
2022/01/08 03:05:13;;;;;;;37.97;19.27;;;2.20;99.90;;;;;;5029329;28;20128;-85
2022/01/08 03:07:40;;;;;;;40.88;18.52;;;1.20;99.90;;;;;;5012623;28;20129;-85
2022/01/08 03:10:07;;;;;;;38.20;19.25;;;1.20;99.90;;;;;;5030627;28;20081;-84
2022/01/08 03:12:33;;;;;;;42.50;20.13;;;1.20;99.90;;;;;;5027430;28;20049;-85
2022/01/08 03:14:59;;;;;;;42.97;20.98;;;1.10;99.90;;;;;;5012832;28;20501;-84
2022/01/08 03:17:24;;;;;;;48.35;21.10;;;1.80;99.90;;;;;;5030479;28;20463;-85
2022/01/08 03:19:52;;;;;;;43.83;20.40;;;1.10;99.90;;;;;;4976904;28;1181336;-84
2022/01/08 03:22:18;;;;;;;44.10;19.58;;;1.00;99.90;;;;;;5011738;28;20137;-85
2022/01/08 03:24:44;;;;;;;36.97;17.75;;;1.10;99.90;;;;;;5013118;28;20128;-85
2022/01/08 03:27:10;;;;;;;43.47;20.42;;;1.00;99.90;;;;;;5030207;28;20049;-85
2022/01/08 03:29:36;;;;;;;45.00;20.80;;;2.00;99.90;;;;;;5029409;28;20049;-85
2022/01/08 03:32:02;;;;;;;42.88;17.08;;;1.90;99.90;;;;;;5031196;28;20099;-85
2022/01/08 03:34:27;;;;;;;44.10;19.10;;;1.10;99.90;;;;;;5030118;28;20048;-85
2022/01/08 03:36:53;;;;;;;51.63;20.23;;;1.90;99.90;;;;;;5029261;28;20351;-85
2022/01/08 03:39:20;;;;;;;52.03;20.35;;;2.70;99.90;;;;;;5029889;28;20052;-85
2022/01/08 03:41:46;;;;;;;44.72;18.48;;;2.20;99.90;;;;;;5029351;28;20053;-85
2022/01/08 03:44:12;;;;;;;30.80;15.25;;;1.80;99.90;;;;;;5029296;28;20057;-84
2022/01/08 03:46:38;;;;;;;43.22;18.92;;;1.00;99.90;;;;;;5012740;28;20045;-84
2022/01/08 03:51:30;;;;;;;49.13;19.67;;;1.80;99.90;;;;;;5013228;28;20057;-85
2022/01/08 03:53:57;;;;;;;44.55;20.30;;;1.80;99.90;;;;;;5029227;28;20133;-85
2022/01/08 03:56:23;;;;;;;47.28;19.02;;;1.60;99.90;;;;;;5029822;28;20053;-85
2022/01/08 03:58:49;;;;;;;41.92;17.83;;;1.00;99.90;;;;;;5029446;28;20095;-85
2022/01/08 04:01:14;;;;;;;46.40;20.58;;;1.10;99.90;;;;;;5021551;28;20108;-85
2022/01/08 04:03:40;;;;;;;40.15;18.58;;;1.00;99.90;;;;;;5029760;28;20052;-85
2022/01/08 04:06:05;;;;;;;42.50;18.88;;;1.00;99.90;;;;;;5030771;28;20120;-85
2022/01/08 04:08:31;;;;;;;41.17;17.67;;;1.10;99.90;;;;;;5029623;28;20095;-84
2022/01/08 04:10:57;;;;;;;35.00;16.80;;;1.10;99.90;;;;;;5030196;28;20049;-85
2022/01/08 04:13:26;;;;;;;36.50;16.20;;;1.40;99.90;;;;;;5029520;28;20490;-85
2022/01/08 04:15:56;;;;;;;36.60;14.73;;;1.00;99.90;;;;;;5029269;28;20111;-84
2022/01/08 04:18:22;;;;;;;34.10;15.18;;;1.10;99.90;;;;;;5013503;28;20119;-84
2022/01/08 04:21:02;;;;;;;36.53;15.30;;;1.10;99.90;;;;;;5030066;28;20493;-86
2022/01/08 04:23:28;;;;;;;37.13;15.02;;;1.00;99.90;;;;;;5015258;28;20144;-85
2022/01/08 04:25:53;;;;;;;29.23;11.60;;;1.00;99.90;;;;;;5033729;28;20569;-84
2022/01/08 04:28:19;;;;;;;32.92;14.27;;;1.00;99.90;;;;;;5016851;28;20049;-84
2022/01/08 04:30:45;;;;;;;28.00;11.75;;;1.60;99.90;;;;;;5016047;28;20061;-84
2022/01/08 04:33:10;;;;;;;29.95;13.27;;;1.00;99.90;;;;;;5034016;28;20079;-85
2022/01/08 04:35:36;;;;;;;29.83;12.70;;;1.40;99.90;;;;;;5032934;28;20072;-84
2022/01/08 04:38:02;;;;;;;23.02;11.68;;;1.20;99.90;;;;;;5016348;28;20349;-84
2022/01/08 04:40:27;;;;;;;24.50;11.00;;;1.00;99.90;;;;;;5016445;28;20076;-85
2022/01/08 04:42:53;;;;;;;26.25;10.95;;;1.00;99.90;;;;;;5033449;28;20607;-84
2022/01/08 04:45:21;;;;;;;16.58;7.75;;;1.00;99.90;;;;;;5033875;28;20049;-85
2022/01/08 04:47:46;;;;;;;20.92;9.70;;;1.20;99.90;;;;;;5033303;28;20482;-85
2022/01/08 04:50:12;;;;;;;27.92;10.80;;;1.10;99.90;;;;;;5033854;28;20053;-85
2022/01/08 04:52:39;;;;;;;19.55;8.00;;;1.50;99.90;;;;;;5033693;28;20096;-85
2022/01/08 04:55:05;;;;;;;20.20;10.00;;;1.10;99.90;;;;;;5033329;28;20184;-86
2022/01/08 04:57:31;;;;;;;22.52;9.68;;;1.10;99.90;;;;;;5032608;28;20502;-85
2022/01/08 04:59:56;;;;;;;23.10;8.70;;;1.60;99.90;;;;;;5032263;28;20091;-86
2022/01/08 05:02:22;;;;;;;22.45;9.23;;;1.60;99.90;;;;;;5032619;28;20099;-85
2022/01/08 05:04:47;;;;;;;17.08;8.60;;;1.10;99.90;;;;;;5033050;28;20485;-86
2022/01/08 05:07:13;;;;;;;21.95;8.80;;;1.00;99.90;;;;;;5032406;28;20504;-85
2022/01/08 05:09:39;;;;;;;20.15;9.00;;;1.10;99.90;;;;;;5032334;28;20395;-86
2022/01/08 05:12:05;;;;;;;23.17;9.50;;;1.70;99.90;;;;;;5031958;28;20049;-86
2022/01/08 05:14:30;;;;;;;24.73;9.85;;;1.10;99.90;;;;;;5033436;28;20561;-86
2022/01/08 05:17:01;;;;;;;28.98;9.88;;;1.00;99.90;;;;;;5031834;28;20045;-86
2022/01/08 05:19:41;;;;;;;25.88;10.85;;;1.00;99.90;;;;;;5031923;28;20061;-85
2022/01/08 05:22:09;;;;;;;27.10;11.13;;;1.00;99.90;;;;;;5017360;28;20057;-83
2022/01/08 05:24:35;;;;;;;28.38;12.30;;;1.00;99.90;;;;;;5015803;28;20135;-86
2022/01/08 05:27:03;;;;;;;32.33;12.88;;;2.70;99.90;;;;;;5031469;28;20485;-86
2022/01/08 05:29:30;;;;;;;33.58;13.77;;;1.70;99.90;;;;;;5032784;28;20512;-86
2022/01/08 05:31:55;;;;;;;36.95;14.32;;;1.00;99.90;;;;;;5032406;28;20132;-85
2022/01/08 05:34:21;;;;;;;34.20;15.52;;;0.90;99.90;;;;;;5015112;28;20125;-85
2022/01/08 05:36:47;;;;;;;40.78;15.25;;;0.90;99.90;;;;;;5030591;28;20140;-84
2022/01/08 05:39:12;;;;;;;30.13;14.98;;;1.50;99.90;;;;;;5031130;28;20180;-85
2022/01/08 05:41:38;;;;;;;34.92;15.45;;;0.90;99.90;;;;;;5015406;28;20056;-85
2022/01/08 05:44:04;;;;;;;41.85;15.57;;;0.90;99.90;;;;;;5031139;28;20378;-85
2022/01/08 05:46:29;;;;;;;38.15;15.55;;;1.00;99.90;;;;;;5032202;28;20494;-86
2022/01/08 05:49:00;;;;;;;41.33;15.15;;;0.90;99.90;;;;;;5031630;28;20056;-86
2022/01/08 05:51:26;;;;;;;36.50;15.63;;;1.10;99.90;;;;;;5032467;28;20512;-84
2022/01/08 05:53:51;;;;;;;45.30;17.10;;;1.70;99.90;;;;;;5031514;28;20136;-84
2022/01/08 05:56:17;;;;;;;39.90;16.35;;;0.90;99.90;;;;;;5031949;28;20401;-84
2022/01/08 05:58:43;;;;;;;42.00;17.38;;;2.00;99.90;;;;;;5032564;28;20049;-84
2022/01/08 06:01:08;;;;;;;39.17;15.73;;;2.20;99.90;;;;;;5032018;28;20053;-84
2022/01/08 06:03:34;;;;;;;42.75;17.38;;;0.90;99.90;;;;;;5031149;28;20054;-84
2022/01/08 06:06:00;;;;;;;38.35;16.70;;;1.10;99.90;;;;;;5030882;28;20406;-85
2022/01/08 06:08:25;;;;;;;42.15;16.38;;;0.90;99.90;;;;;;5033623;28;20075;-83
2022/01/08 06:10:51;;;;;;;39.78;17.58;;;2.60;99.90;;;;;;5040543;28;20375;-85
2022/01/08 06:13:16;;;;;;;38.85;16.73;;;0.90;99.90;;;;;;5030653;28;20057;-84
2022/01/08 06:15:42;;;;;;;41.17;16.42;;;1.90;99.90;;;;;;5014349;28;20383;-85
2022/01/08 06:18:08;;;;;;;38.22;16.13;;;1.00;99.90;;;;;;5030504;28;20057;-84
2022/01/08 06:20:33;;;;;;;42.53;17.15;;;1.00;99.90;;;;;;5031932;28;20128;-85
2022/01/08 06:22:59;;;;;;;32.13;13.77;;;1.00;99.90;;;;;;5030497;28;20462;-85
2022/01/08 06:25:25;;;;;;;29.08;15.30;;;0.90;99.90;;;;;;5032124;28;20045;-84
2022/01/08 06:27:51;;;;;;;35.22;15.55;;;1.00;99.90;;;;;;5030850;28;20045;-85
2022/01/08 06:30:16;;;;;;;32.50;14.43;;;1.50;99.90;;;;;;5031463;28;20045;-84
2022/01/08 06:32:42;;;;;;;35.42;15.35;;;1.00;99.90;;;;;;5030772;28;20136;-84
2022/01/08 06:35:08;;;;;;;35.15;14.10;;;1.70;99.90;;;;;;5030186;28;20056;-84
2022/01/08 06:37:33;;;;;;;32.72;15.05;;;1.10;99.90;;;;;;5031772;28;20187;-84
2022/01/08 06:39:59;;;;;;;37.92;14.13;;;1.10;99.90;;;;;;5031300;28;20085;-84
2022/01/08 06:42:25;;;;;;;34.55;15.45;;;1.10;99.90;;;;;;5031597;28;20049;-84
2022/01/08 06:44:50;;;;;;;32.80;13.43;;;1.00;99.90;;;;;;5030349;28;20474;-84
2022/01/08 06:47:16;;;;;;;38.05;15.05;;;1.00;99.90;;;;;;5029413;28;20042;-84
2022/01/08 06:49:42;;;;;;;36.92;13.77;;;1.00;99.90;;;;;;5030019;28;20053;-84
2022/01/08 06:52:07;;;;;;;31.60;14.20;;;1.80;99.90;;;;;;5031149;28;20099;-84
2022/01/08 06:54:33;;;;;;;38.08;13.57;;;0.90;99.90;;;;;;5031502;28;20053;-86
2022/01/08 06:56:59;;;;;;;30.55;13.80;;;2.20;99.90;;;;;;5030204;28;20049;-85
2022/01/08 06:59:24;;;;;;;32.88;15.27;;;2.00;99.90;;;;;;5030115;28;20152;-85
2022/01/08 07:01:50;;;;;;;39.22;14.63;;;1.80;99.90;;;;;;5030583;28;20409;-85
2022/01/08 07:04:15;;;;;;;34.03;12.60;;;0.70;99.90;;;;;;5031008;28;20052;-85
2022/01/08 07:06:41;;;;;;;32.53;14.18;;;0.70;99.90;;;;;;5030629;28;20045;-85
2022/01/08 07:09:07;;;;;;;28.77;13.63;;;0.70;99.90;;;;;;5031174;28;20055;-85
2022/01/08 07:11:32;;;;;;;26.65;11.88;;;0.70;99.90;;;;;;5014217;28;20144;-85
2022/01/08 07:13:58;;;;;;;25.67;12.38;;;0.70;99.90;;;;;;5031498;28;20474;-85
2022/01/08 07:16:24;;;;;;;32.28;13.30;;;2.20;99.90;;;;;;5031100;28;20139;-85
2022/01/08 07:18:49;;;;;;;32.72;13.32;;;0.70;99.90;;;;;;5029599;28;20057;-85
2022/01/08 07:21:15;;;;;;;33.88;13.02;;;1.40;99.90;;;;;;5030678;28;20065;-85
2022/01/08 07:23:41;;;;;;;35.05;13.80;;;0.70;99.90;;;;;;5029742;28;20092;-84
2022/01/08 07:26:07;;;;;;;32.45;12.35;;;0.60;99.90;;;;;;5030591;28;20049;-85
2022/01/08 07:28:32;;;;;;;33.35;13.63;;;0.70;99.90;;;;;;5031477;28;20122;-85
2022/01/08 07:30:58;;;;;;;35.75;14.05;;;1.80;99.90;;;;;;5031221;28;20057;-86
2022/01/08 07:33:23;;;;;;;27.90;12.70;;;0.80;99.90;;;;;;5029576;28;20102;-85
2022/01/08 07:35:49;;;;;;;32.35;13.82;;;0.70;99.90;;;;;;5030955;28;20107;-86
2022/01/08 07:38:15;;;;;;;35.60;13.95;;;0.70;99.90;;;;;;5013074;28;20119;-86
2022/01/08 07:40:41;;;;;;;32.85;13.98;;;1.80;99.90;;;;;;5029720;28;20049;-86
2022/01/08 07:43:07;;;;;;;41.35;13.95;;;0.80;99.90;;;;;;5013212;28;20177;-86
2022/01/08 07:45:32;;;;;;;35.38;14.13;;;0.90;99.90;;;;;;5013011;28;20109;-86
2022/01/08 07:47:58;;;;;;;29.65;13.52;;;0.90;99.90;;;;;;5029966;28;20045;-86
2022/01/08 07:50:24;;;;;;;35.38;13.80;;;0.90;99.90;;;;;;5029803;28;20096;-85
2022/01/08 07:52:49;;;;;;;29.80;13.43;;;0.80;99.90;;;;;;5029717;28;20045;-86
2022/01/08 07:55:15;;;;;;;33.88;13.15;;;0.90;99.90;;;;;;5029345;28;20084;-86
2022/01/08 07:57:40;;;;;;;31.33;13.10;;;1.10;99.90;;;;;;5030844;28;20538;-86
2022/01/08 08:00:07;;;;;;;33.72;13.90;;;1.20;99.90;;;;;;5033986;28;20049;-85
2022/01/08 08:02:32;;;;;;;27.90;13.13;;;1.00;99.90;;;;;;5016622;28;20049;-86
2022/01/08 08:04:58;;;;;;;36.63;14.13;;;1.00;99.90;;;;;;5032310;28;20050;-86
2022/01/08 08:07:36;;;;;;;34.83;13.35;;;1.20;99.90;;;;;;5033044;28;20045;-86
2022/01/08 08:10:06;;;;;;;31.63;12.93;;;1.00;99.90;;;;;;5017963;28;20053;-85
2022/01/08 08:12:32;;;;;;;34.72;13.73;;;0.90;99.90;;;;;;5047176;28;20049;-85
2022/01/08 08:14:57;;;;;;;29.42;13.77;;;1.00;99.90;;;;;;5026556;28;20064;-86
2022/01/08 08:17:23;;;;;;;23.45;12.07;;;1.20;99.90;;;;;;5032697;28;20092;-86
2022/01/08 08:19:49;;;;;;;31.70;13.10;;;1.90;99.90;;;;;;5016309;28;20143;-86
2022/01/08 08:22:14;;;;;;;30.08;11.35;;;1.40;99.90;;;;;;5033686;28;20444;-86
2022/01/08 08:24:40;;;;;;;24.85;11.70;;;1.00;99.90;;;;;;5034215;28;20041;-86
2022/01/08 08:27:06;;;;;;;27.42;11.68;;;1.00;99.90;;;;;;5034018;28;20091;-87
2022/01/08 08:29:31;;;;;;;26.73;10.82;;;1.00;99.90;;;;;;5032193;28;20081;-85
2022/01/08 08:31:57;;;;;;;23.25;11.07;;;1.50;99.90;;;;;;5016161;28;20046;-86
2022/01/08 08:34:23;;;;;;;26.42;11.25;;;2.30;99.90;;;;;;5032289;28;20065;-86
2022/01/08 08:36:48;;;;;;;26.65;11.40;;;1.10;99.90;;;;;;5032729;28;20088;-85
2022/01/08 08:39:14;;;;;;;22.80;9.75;;;1.20;99.90;;;;;;5033902;28;20053;-86
2022/01/08 08:41:40;;;;;;;20.27;9.80;;;1.50;99.90;;;;;;5015744;28;20041;-86
2022/01/08 08:44:05;;;;;;;24.88;9.77;;;1.80;99.90;;;;;;5032401;28;20133;-86
2022/01/08 08:46:31;;;;;;;21.67;8.68;;;1.70;99.90;;;;;;5032161;28;20470;-86
2022/01/08 08:48:57;;;;;;;18.23;8.95;;;1.80;99.90;;;;;;5015905;28;20057;-86
2022/01/08 08:51:22;;;;;;;24.48;9.23;;;3.10;99.90;;;;;;5033259;28;20045;-86
2022/01/08 08:53:48;;;;;;;19.65;8.27;;;2.00;99.90;;;;;;5032463;28;20053;-86
2022/01/08 08:56:13;;;;;;;20.90;8.63;;;2.00;99.90;;;;;;5033536;28;20053;-85
2022/01/08 08:58:39;;;;;;;18.65;7.88;;;3.00;99.90;;;;;;5031945;28;20049;-85
2022/01/08 09:01:05;;;;;;;15.73;7.80;;;2.20;99.90;;;;;;5032659;28;20049;-87
2022/01/08 09:03:31;;;;;;;26.00;8.18;;;2.20;99.90;;;;;;5033021;28;20045;-86
2022/01/08 09:05:56;;;;;;;17.42;7.00;;;2.50;99.90;;;;;;5032661;28;20047;-85
2022/01/08 09:08:22;;;;;;;14.35;6.88;;;2.70;99.90;;;;;;5033449;28;20049;-85
2022/01/08 09:10:48;;;;;;;14.55;7.00;;;4.00;99.90;;;;;;5033745;28;20101;-85
2022/01/08 09:13:13;;;;;;;13.52;6.90;;;2.80;99.90;;;;;;5016266;28;20064;-85
2022/01/08 09:15:41;;;;;;;19.48;7.07;;;3.00;99.90;;;;;;5032110;28;20045;-86
2022/01/08 09:18:08;;;;;;;15.77;6.60;;;3.60;99.90;;;;;;5032544;28;20053;-86
2022/01/08 09:20:33;;;;;;;16.17;6.05;;;3.80;99.90;;;;;;4998672;28;20111;-86
2022/01/08 09:22:59;;;;;;;18.95;6.03;;;4.50;99.90;;;;;;5015366;28;20049;-85
2022/01/08 09:25:25;;;;;;;16.25;6.10;;;4.20;99.90;;;;;;5032856;28;20057;-85
2022/01/08 09:27:50;;;;;;;15.18;5.45;;;5.70;99.90;;;;;;5033527;28;20115;-85
2022/01/08 09:30:16;;;;;;;15.70;5.20;;;5.20;99.90;;;;;;5032352;28;20049;-86
2022/01/08 09:32:44;;;;;;;10.80;5.70;;;3.90;99.90;;;;;;4998997;28;20041;-85
2022/01/08 09:35:10;;;;;;;17.98;6.30;;;3.90;99.90;;;;;;5031970;28;20053;-85
2022/01/08 09:37:38;;;;;;;13.48;5.80;;;3.80;99.90;;;;;;5015081;28;20069;-85
2022/01/08 09:40:05;;;;;;;16.40;5.68;;;3.50;99.90;;;;;;5033102;28;20053;-85
2022/01/08 09:42:31;;;;;;;14.75;6.82;;;3.40;99.90;;;;;;5014995;28;20060;-85
2022/01/08 09:44:56;;;;;;;14.73;5.95;;;3.40;99.90;;;;;;5014879;28;20489;-85
2022/01/08 09:47:22;;;;;;;16.55;7.13;;;3.30;99.90;;;;;;5031917;28;20054;-85
2022/01/08 09:49:49;;;;;;;18.00;7.10;;;3.10;99.90;;;;;;5014621;28;20045;-85
2022/01/08 09:52:14;;;;;;;16.10;6.40;;;3.00;99.90;;;;;;5015299;28;20049;-86
2022/01/08 09:54:40;;;;;;;17.10;7.07;;;4.60;99.90;;;;;;5032365;28;20056;-86
2022/01/08 09:57:06;;;;;;;15.10;6.93;;;2.80;99.90;;;;;;5031762;28;20131;-85
2022/01/08 09:59:31;;;;;;;13.02;6.68;;;2.90;99.90;;;;;;5031086;28;20093;-85
2022/01/08 10:01:59;;;;;;;19.23;7.18;;;2.80;99.90;;;;;;5017849;28;20077;-84
2022/01/08 10:04:29;;;;;;;19.90;7.43;;;2.70;99.90;;;;;;5014784;28;20058;-85
2022/01/08 10:07:20;;;;;;;19.25;7.53;;;2.80;99.90;;;;;;4998546;28;20119;-85
2022/01/08 10:10:12;;;;;;;18.17;8.40;;;2.80;99.90;;;;;;4997939;28;20045;-85
2022/01/08 10:12:40;;;;;;;18.40;7.60;;;2.80;99.90;;;;;;4999501;28;20049;-85
2022/01/08 10:17:51;;;;;;;15.23;7.22;;;2.90;99.90;;;;;;5003247;28;20084;-85
2022/01/08 10:20:28;;;;;;;16.85;7.32;;;3.70;99.90;;;;;;5030776;28;20144;-85
2022/01/08 10:22:59;;;;;;;18.88;7.47;;;3.90;99.90;;;;;;5013871;28;20050;-85
2022/01/08 10:25:25;;;;;;;13.30;6.80;;;4.40;99.90;;;;;;5030972;28;20061;-85
2022/01/08 10:27:50;;;;;;;13.70;7.93;;;3.00;99.90;;;;;;5031275;28;20056;-85
2022/01/08 10:30:26;;;;;;;13.00;7.38;;;2.90;99.90;;;;;;5015520;28;20342;-85
2022/01/08 10:32:58;;;;;;;15.77;10.13;;;3.60;99.90;;;;;;4998942;28;20053;-85
2022/01/08 10:35:50;;;;;;;22.73;8.10;;;3.30;99.90;;;;;;4998190;28;20053;-85
2022/01/08 10:38:16;;;;;;;20.88;8.88;;;3.00;99.90;;;;;;5014463;28;20393;-85
2022/01/08 10:40:42;;;;;;;23.20;9.20;;;3.00;99.90;;;;;;5030402;28;20045;-85
2022/01/08 10:43:24;;;;;;;20.77;9.38;;;4.50;99.90;;;;;;5030815;28;20057;-85
2022/01/08 10:45:51;;;;;;;15.63;9.50;;;4.10;99.90;;;;;;5030761;28;20053;-85
2022/01/08 10:48:27;;;;;;;22.17;10.88;;;3.40;99.90;;;;;;5014160;28;20092;-85
2022/01/08 10:50:55;;;;;;;18.63;10.70;;;3.00;99.90;;;;;;5013844;28;20570;-85
2022/01/08 10:53:21;;;;;;;22.25;10.48;;;3.00;99.90;;;;;;5014270;28;20129;-84
2022/01/08 10:55:46;;;;;;;20.45;10.68;;;3.10;99.90;;;;;;5013808;28;20053;-91
2022/01/08 10:58:12;;;;;;;23.92;11.55;;;3.10;99.90;;;;;;5014135;28;20545;-88
2022/01/08 11:00:38;;;;;;;20.73;10.98;;;3.10;99.90;;;;;;5013847;28;20042;-89
2022/01/08 11:03:04;;;;;;;20.00;11.38;;;3.00;99.90;;;;;;4997681;28;20053;-85
2022/01/08 11:05:29;;;;;;;21.15;11.40;;;3.20;99.90;;;;;;5031265;28;20100;-87
2022/01/08 11:08:13;;;;;;;17.88;10.00;;;3.20;99.90;;;;;;5029890;28;20429;-89
2022/01/08 11:10:38;;;;;;;19.15;10.48;;;3.20;99.90;;;;;;4997211;28;20432;-87
2022/01/08 11:13:05;;;;;;;26.27;12.23;;;3.10;99.90;;;;;;5013771;28;20049;-89
2022/01/08 11:15:48;;;;;;;18.45;11.00;;;3.40;99.90;;;;;;5013693;28;20065;-86
2022/01/08 11:18:14;;;;;;;18.25;11.95;;;4.60;99.90;;;;;;4999611;28;20398;-91
2022/01/08 11:20:39;;;;;;;21.25;10.80;;;3.20;99.90;;;;;;4996534;28;20064;-90
2022/01/08 11:23:05;;;;;;;19.48;11.57;;;4.70;99.90;;;;;;5013520;28;20537;-87
2022/01/08 11:25:35;;;;;;;21.83;11.80;;;3.20;99.90;;;;;;5010938;28;20485;-88
2022/01/08 11:28:05;;;;;;;21.13;12.20;;;3.10;99.90;;;;;;5029337;28;20049;-89
2022/01/08 11:30:32;;;;;;;23.33;12.15;;;3.20;99.90;;;;;;5029438;28;20053;-88
2022/01/08 11:33:01;;;;;;;20.42;11.60;;;3.30;99.90;;;;;;5012860;28;20053;-89
2022/01/08 11:35:28;;;;;;;24.15;11.63;;;4.40;99.90;;;;;;5033358;28;20045;-89
2022/01/08 11:37:56;;;;;;;26.13;12.77;;;3.30;99.90;;;;;;5000401;28;20256;-86
2022/01/08 11:40:23;;;;;;;23.90;13.35;;;4.60;99.90;;;;;;5001250;28;20136;-88
2022/01/08 11:42:49;;;;;;;21.63;12.77;;;3.40;99.90;;;;;;5000674;28;20045;-88
2022/01/08 11:45:26;;;;;;;27.67;12.48;;;3.40;99.90;;;;;;5033176;28;20119;-87
2022/01/08 11:47:53;;;;;;;24.67;13.05;;;3.40;99.90;;;;;;4985594;28;20053;-88
2022/01/08 11:50:20;;;;;;;21.65;12.65;;;3.40;99.90;;;;;;4984635;28;20054;-87
2022/01/08 11:52:46;;;;;;;19.50;10.57;;;3.60;99.90;;;;;;5016263;28;20104;-88
2022/01/08 11:55:12;;;;;;;23.13;13.50;;;3.60;99.90;;;;;;5000552;28;20448;-89
2022/01/08 11:57:37;;;;;;;23.23;12.45;;;3.60;99.90;;;;;;5016581;28;20088;-88
2022/01/08 12:00:04;;;;;;;23.10;12.15;;;3.60;99.90;;;;;;5033159;28;20083;-88
2022/01/08 12:02:34;;;;;;;20.30;12.80;;;3.60;99.90;;;;;;5017289;28;20057;-85
2022/01/08 12:05:00;;;;;;;25.23;13.60;;;3.70;99.90;;;;;;5032094;28;20052;-87
2022/01/08 12:07:34;;;;;;;20.10;13.48;;;3.60;99.90;;;;;;5016655;28;20045;-87
2022/01/08 12:10:29;;;;;;;24.65;11.73;;;3.70;99.90;;;;;;5000371;28;20482;-85
2022/01/08 12:12:59;;;;;;;22.75;12.40;;;4.50;99.90;;;;;;5032621;28;20088;-92
2022/01/08 12:15:40;;;;;;;23.33;11.90;;;3.90;99.90;;;;;;5017093;28;20049;-88
2022/01/08 12:18:07;;;;;;;19.00;12.63;;;3.80;99.90;;;;;;5033546;28;20087;-89
2022/01/08 12:20:55;;;;;;;19.95;12.02;;;4.20;99.90;;;;;;5017241;28;20462;-88
2022/01/08 12:23:31;;;;;;;24.33;12.57;;;4.00;99.90;;;;;;5017617;28;20132;-89
2022/01/08 12:26:15;;;;;;;19.73;12.88;;;3.90;99.90;;;;;;5017348;28;20053;-89
2022/01/08 12:28:47;;;;;;;17.75;12.18;;;3.90;99.90;;;;;;5034022;28;20450;-86
2022/01/08 12:31:31;;;;;;;22.23;13.75;;;4.20;99.90;;;;;;5033783;28;20496;-85
2022/01/08 12:34:24;;;;;;;21.48;13.80;;;3.90;99.90;;;;;;5032403;28;20496;-89
2022/01/08 12:36:57;;;;;;;27.73;14.85;;;3.90;99.90;;;;;;5033034;28;20053;-88
2022/01/08 12:39:24;;;;;;;24.60;15.65;;;3.90;99.90;;;;;;5000785;28;20053;-90
2022/01/08 12:41:50;;;;;;;26.85;16.98;;;4.90;99.90;;;;;;5015696;28;20418;-86
2022/01/08 12:44:26;;;;;;;26.75;16.13;;;4.30;99.90;;;;;;4999200;28;20037;-88
2022/01/08 12:46:51;;;;;;;27.92;17.25;;;3.90;99.90;;;;;;5032408;28;20064;-87
2022/01/08 12:49:17;;;;;;;27.15;18.30;;;4.00;99.90;;;;;;5016096;28;20041;-86
2022/01/08 12:51:49;;;;;;;28.95;19.15;;;4.00;99.90;;;;;;5031952;28;20462;-88
2022/01/08 12:54:17;;;;;;;33.83;18.48;;;4.00;99.90;;;;;;5000258;28;20084;-87
2022/01/08 12:56:47;;;;;;;28.52;18.25;;;4.00;99.90;;;;;;5016415;28;20363;-87
2022/01/08 12:59:13;;;;;;;26.10;17.98;;;4.00;99.90;;;;;;5015961;28;20053;-87
2022/01/08 13:01:40;;;;;;;32.50;18.48;;;4.00;99.90;;;;;;5000313;28;20037;-87